createdAt,value
2016-04-20T08:29:37.193Z,290
2016-04-20T08:30:37.977Z,340
2016-04-20T08:31:37.339Z,290
2016-04-20T08:32:37.310Z,330
2016-04-20T08:33:42.188Z,390
2016-04-20T08:34:37.332Z,695
2016-04-20T08:35:37.302Z,665
2016-04-20T08:36:37.680Z,1275
2016-04-20T08:37:37.293Z,1400
2016-04-20T08:38:37.279Z,380
2016-04-20T08:39:37.267Z,355
2016-04-20T08:40:37.270Z,305
2016-04-20T08:41:37.273Z,310
2016-04-20T08:42:37.353Z,330
2016-04-20T08:43:37.246Z,405
2016-04-20T08:44:37.265Z,415
2016-04-20T08:45:37.221Z,1290
2016-04-20T08:46:37.223Z,370
2016-04-20T08:47:37.210Z,630
2016-04-20T08:48:37.213Z,1310
2016-04-20T08:49:37.232Z,1425
2016-04-20T08:50:37.187Z,1060
2016-04-20T08:51:37.190Z,350
2016-04-20T08:52:37.239Z,315
2016-04-20T08:53:37.180Z,300
2016-04-20T08:54:37.183Z,305
2016-04-20T08:55:37.169Z,290
2016-04-20T08:56:37.156Z,290
2016-04-20T08:57:37.143Z,320
2016-04-20T08:58:37.131Z,335
2016-04-20T08:59:37.149Z,335
2016-04-20T09:00:37.136Z,325
2016-04-20T09:01:37.170Z,325
2016-04-20T09:02:37.141Z,335
2016-04-20T09:03:37.097Z,380
2016-04-20T09:04:37.115Z,645
2016-04-20T09:05:37.087Z,1020
2016-04-20T09:06:37.089Z,1245
2016-04-20T09:07:37.077Z,910
2016-04-20T09:08:37.063Z,620
2016-04-20T09:09:37.051Z,570
2016-04-20T09:10:37.054Z,325
2016-04-20T09:11:37.025Z,290
2016-04-20T09:12:37.059Z,285
2016-04-20T09:13:37.030Z,310
2016-04-20T09:14:37.018Z,315
2016-04-20T09:15:37.004Z,325
2016-04-20T09:16:36.992Z,470
2016-04-20T09:17:36.994Z,530
2016-04-20T09:18:36.981Z,535
2016-04-20T09:19:36.968Z,1020
2016-04-20T09:20:36.971Z,680
2016-04-20T09:21:37.005Z,630
2016-04-20T09:22:36.678Z,325
2016-04-20T09:23:36.947Z,345
2016-04-20T09:24:36.950Z,390
2016-04-20T09:25:36.936Z,360
2016-04-20T09:26:36.924Z,325
2016-04-20T09:27:36.926Z,520
2016-04-20T09:28:36.913Z,355
2016-04-20T09:29:36.744Z,270
2016-04-20T09:30:36.904Z,240
2016-04-20T09:31:36.734Z,260
2016-04-20T09:32:36.893Z,905
2016-04-20T09:33:36.879Z,410
2016-04-20T09:34:36.867Z,1050
2016-04-20T09:35:36.854Z,1035
2016-04-20T09:36:36.825Z,860
2016-04-20T09:37:36.828Z,870
2016-04-20T09:38:36.845Z,575
2016-04-20T09:39:36.834Z,910
2016-04-20T09:40:36.805Z,910
2016-04-20T09:41:36.792Z,710
2016-04-20T09:42:36.811Z,605
2016-04-20T09:43:36.781Z,500
2016-04-20T09:44:36.784Z,790
2016-04-20T09:45:36.786Z,405
2016-04-20T09:46:36.774Z,445
2016-04-20T09:47:36.761Z,355
2016-04-20T09:48:36.748Z,330
2016-04-20T09:49:36.751Z,335
2016-04-20T09:50:36.738Z,300
2016-04-20T09:51:36.725Z,285
2016-04-20T09:52:36.743Z,310
2016-04-20T09:53:36.715Z,1025
2016-04-20T09:54:36.702Z,975
2016-04-20T09:55:36.721Z,760
2016-04-20T09:56:36.723Z,1045
2016-04-20T09:57:36.710Z,1415
2016-04-20T09:58:36.682Z,1450
2016-04-20T09:59:36.684Z,1905
2016-04-20T10:00:37.171Z,1920
2016-04-20T10:01:36.689Z,1445
2016-04-20T10:02:36.660Z,1305
2016-04-20T10:03:36.679Z,1540
2016-04-20T10:04:36.650Z,1410
2016-04-20T10:05:36.653Z,1170
2016-04-20T10:06:36.671Z,1025
2016-04-20T10:07:36.689Z,925
2016-04-20T10:08:36.848Z,1235
2016-04-20T10:09:36.633Z,1125
2016-04-20T10:10:36.636Z,1070
2016-04-20T10:11:36.623Z,1240
2016-04-20T10:12:36.625Z,1285
2016-04-20T10:13:36.612Z,1530
2016-04-20T10:14:36.615Z,1795
2016-04-20T10:15:36.618Z,1720
2016-04-20T10:16:36.605Z,1955
2016-04-20T10:17:36.608Z,1875
2016-04-20T10:18:36.611Z,1430
2016-04-20T10:19:36.613Z,1500
2016-04-20T10:20:36.600Z,1660
2016-04-20T10:21:36.603Z,1755
2016-04-20T10:22:36.589Z,1210
2016-04-20T10:23:36.592Z,935
2016-04-20T10:24:36.580Z,1390
2016-04-20T10:25:36.597Z,1870
2016-04-20T10:26:36.585Z,1995
2016-04-20T10:27:36.602Z,1970
2016-04-20T10:28:36.590Z,1105
2016-04-20T10:29:36.577Z,1855
2016-04-20T10:30:36.596Z,1655
2016-04-20T10:31:36.582Z,1970
2016-04-20T10:32:36.585Z,1865
2016-04-20T10:33:36.588Z,1205
2016-04-20T10:34:36.591Z,1260
2016-04-20T10:35:36.438Z,1505
2016-04-20T10:36:36.596Z,1610
2016-04-20T10:37:36.583Z,1515
2016-04-20T10:38:36.586Z,1775
2016-04-20T10:39:36.589Z,1425
2016-04-20T10:40:36.622Z,650
2016-04-20T10:41:36.595Z,1345
2016-04-20T10:42:36.597Z,645
2016-04-20T10:43:36.615Z,1120
2016-04-20T10:44:36.602Z,1340
2016-04-20T10:45:36.605Z,2215
2016-04-20T10:46:36.592Z,2280
2016-04-20T10:47:36.611Z,925
2016-04-20T10:48:36.597Z,1895
2016-04-20T10:49:36.600Z,1470
2016-04-20T10:50:36.618Z,1290
2016-04-20T10:51:36.605Z,1300
2016-04-20T10:52:36.608Z,1120
2016-04-20T10:53:36.610Z,1630
2016-04-20T10:54:36.613Z,2125
2016-04-20T10:55:36.600Z,2230
2016-04-20T10:56:36.603Z,1925
2016-04-20T10:57:36.605Z,1870
2016-04-20T10:58:36.624Z,2200
2016-04-20T10:59:36.610Z,2205
2016-04-20T11:00:36.629Z,2180
2016-04-20T11:01:36.616Z,2165
2016-04-20T11:02:36.635Z,2165
2016-04-20T11:03:36.622Z,2165
2016-04-20T11:04:36.640Z,2185
2016-04-20T11:05:36.643Z,2185
2016-04-20T11:06:36.676Z,2175
2016-04-20T11:07:36.632Z,2160
2016-04-20T11:08:36.635Z,2175
2016-04-20T11:09:36.654Z,2215
2016-04-20T11:10:36.656Z,2200
2016-04-20T11:11:36.659Z,2155
2016-04-20T11:12:36.646Z,2135
2016-04-20T11:13:36.665Z,2130
2016-04-20T11:14:36.683Z,2115
2016-04-20T11:15:36.686Z,2135
2016-04-20T11:16:36.672Z,2160
2016-04-20T11:17:36.691Z,2035
2016-04-20T11:18:36.694Z,2145
2016-04-20T11:19:36.697Z,2135
2016-04-20T11:20:37.059Z,2160
2016-04-20T11:21:36.717Z,2125
2016-04-20T11:22:38.064Z,2085
2016-04-20T11:23:37.066Z,2065
2016-04-20T11:24:36.741Z,2080
2016-04-20T11:25:36.728Z,2105
2016-04-20T11:26:36.730Z,2090
2016-04-20T11:27:36.749Z,2070
2016-04-20T11:28:36.751Z,2020
2016-04-20T11:29:36.754Z,1970
2016-04-20T11:30:36.757Z,1980
2016-04-20T11:31:36.775Z,2020
2016-04-20T11:32:36.794Z,2065
2016-04-20T11:33:36.781Z,2105
2016-04-20T11:34:36.815Z,2115
2016-04-20T11:35:36.833Z,2095
2016-04-20T11:36:36.804Z,2075
2016-04-20T11:37:36.823Z,2070
2016-04-20T11:38:36.841Z,2130
2016-04-20T11:39:36.829Z,2225
2016-04-20T11:40:36.846Z,2390
2016-04-20T11:41:36.849Z,2435
2016-04-20T11:42:36.851Z,2410
2016-04-20T11:43:36.854Z,2380
2016-04-20T11:44:36.872Z,2350
2016-04-20T11:45:36.876Z,2330
2016-04-20T11:46:36.862Z,2295
2016-04-20T11:47:36.896Z,2250
2016-04-20T11:48:36.884Z,2290
2016-04-20T11:49:36.886Z,2325
2016-04-20T11:50:36.936Z,2340
2016-04-20T11:51:36.908Z,2380
2016-04-20T11:52:36.910Z,2315
2016-04-20T11:53:36.928Z,2200
2016-04-20T11:54:36.916Z,2310
2016-04-20T11:55:36.918Z,2280
2016-04-20T11:56:36.936Z,2290
2016-04-20T11:57:36.938Z,2335
2016-04-20T11:58:36.957Z,2305
2016-04-20T11:59:36.976Z,2335
2016-04-20T12:00:36.978Z,2325
2016-04-20T12:01:36.966Z,2345
2016-04-20T12:02:36.983Z,2345
2016-04-20T12:03:37.001Z,2330
2016-04-20T12:04:36.973Z,2330
2016-04-20T12:05:37.274Z,2330
2016-04-20T12:06:36.994Z,2285
2016-04-20T12:07:36.997Z,2235
2016-04-20T12:08:37.296Z,2225
2016-04-20T12:09:37.034Z,2245
2016-04-20T12:10:37.004Z,2315
2016-04-20T12:11:37.039Z,2360
2016-04-20T12:12:37.308Z,2350
2016-04-20T12:13:37.029Z,2330
2016-04-20T12:14:37.016Z,2310
2016-04-20T12:15:37.034Z,2295
2016-04-20T12:16:36.895Z,2285
2016-04-20T12:17:37.071Z,2300
2016-04-20T12:18:37.043Z,2265
2016-04-20T12:19:37.045Z,2265
2016-04-20T12:20:37.392Z,2300
2016-04-20T12:21:37.066Z,2300
2016-04-20T12:22:37.069Z,2305
2016-04-20T12:23:37.072Z,2350
2016-04-20T12:24:37.089Z,2365
2016-04-20T12:25:37.077Z,2350
2016-04-20T12:26:37.204Z,2315
2016-04-20T12:27:37.113Z,2290
2016-04-20T12:28:37.100Z,2295
2016-04-20T12:29:37.119Z,2310
2016-04-20T12:30:37.105Z,2340
2016-04-20T12:31:37.156Z,2385
2016-04-20T12:32:37.126Z,2285
2016-04-20T12:33:37.160Z,2070
2016-04-20T12:34:37.148Z,1770
2016-04-20T12:35:37.166Z,1570
2016-04-20T12:36:37.138Z,1670
2016-04-20T12:37:37.141Z,1950
2016-04-20T12:38:37.159Z,2195
2016-04-20T12:39:37.162Z,2325
2016-04-20T12:40:37.165Z,2275
2016-04-20T12:41:37.168Z,2195
2016-04-20T12:42:37.170Z,2195
2016-04-20T12:43:37.172Z,2165
2016-04-20T12:44:37.221Z,2150
2016-04-20T12:45:37.209Z,2125
2016-04-20T12:46:37.212Z,2110
2016-04-20T12:47:37.215Z,2090
2016-04-20T12:48:37.061Z,2070
2016-04-20T12:49:37.220Z,2045
2016-04-20T12:50:37.222Z,2030
2016-04-20T12:51:37.225Z,2010
2016-04-20T12:52:37.228Z,2005
2016-04-20T12:53:37.230Z,1980
2016-04-20T12:54:37.248Z,1975
2016-04-20T12:55:37.251Z,1920
2016-04-20T12:56:37.254Z,1905
2016-04-20T12:57:37.256Z,1925
2016-04-20T12:58:37.259Z,1920
2016-04-20T12:59:37.278Z,1940
2016-04-20T13:00:37.327Z,1945
2016-04-20T13:01:37.298Z,1930
2016-04-20T13:02:37.285Z,1925
2016-04-20T13:03:37.289Z,1925
2016-04-20T13:04:37.275Z,1945
2016-04-20T13:05:37.310Z,1970
2016-04-20T13:06:37.296Z,1950
2016-04-20T13:07:37.299Z,1930
2016-04-20T13:08:37.302Z,1915
2016-04-20T13:09:37.305Z,1905
2016-04-20T13:10:37.307Z,1915
2016-04-20T13:11:37.325Z,1910
2016-04-20T13:12:37.359Z,1900
2016-04-20T13:13:37.737Z,1900
2016-04-20T13:14:37.334Z,1905
2016-04-20T13:15:37.337Z,1940
2016-04-20T13:16:37.339Z,1975
2016-04-20T13:17:37.357Z,1980
2016-04-20T13:18:37.345Z,1950
2016-04-20T13:19:37.347Z,1920
2016-04-20T13:20:37.381Z,1880
2016-04-20T13:21:37.353Z,1835
2016-04-20T13:22:37.370Z,1815
2016-04-20T13:23:37.373Z,1820
2016-04-20T13:24:37.375Z,1790
2016-04-20T13:25:37.378Z,1780
2016-04-20T13:26:37.381Z,1775
2016-04-20T13:27:37.384Z,1780
2016-04-20T13:28:37.403Z,1785
2016-04-20T13:29:37.389Z,1795
2016-04-20T13:30:37.392Z,1810
2016-04-20T13:31:37.410Z,1810
2016-04-20T13:32:37.414Z,1810
2016-04-20T13:33:37.416Z,1800
2016-04-20T13:34:37.435Z,1795
2016-04-20T13:35:37.405Z,1770
2016-04-20T13:36:37.408Z,1780
2016-04-20T13:37:37.426Z,1775
2016-04-20T13:38:37.430Z,1785
2016-04-20T13:39:37.432Z,1780
2016-04-20T13:40:37.435Z,1750
2016-04-20T13:41:37.438Z,1740
2016-04-20T13:42:37.440Z,1750
2016-04-20T13:43:37.442Z,1760
2016-04-20T13:44:37.446Z,1720
2016-04-20T13:45:37.432Z,1685
2016-04-20T13:46:37.451Z,1655
2016-04-20T13:47:37.469Z,1650
2016-04-20T13:48:37.457Z,1650
2016-04-20T13:49:37.459Z,1635
2016-04-20T13:50:37.462Z,1575
2016-04-20T13:51:37.464Z,1480
2016-04-20T13:52:37.468Z,1390
2016-04-20T13:53:37.501Z,1385
2016-04-20T13:54:37.472Z,1475
2016-04-20T13:55:37.475Z,1565
2016-04-20T13:56:37.478Z,1655
2016-04-20T13:57:37.511Z,1670
2016-04-20T13:58:37.546Z,1685
2016-04-20T13:59:37.517Z,245
2016-04-20T14:00:37.520Z,1670
2016-04-20T14:01:37.523Z,1630
2016-04-20T14:02:37.494Z,1595
2016-04-20T14:03:37.513Z,1595
2016-04-20T14:04:37.530Z,1580
2016-04-20T14:05:37.518Z,1595
2016-04-20T14:06:37.535Z,1580
2016-04-20T14:07:37.524Z,1545
2016-04-20T14:08:37.729Z,1540
2016-04-20T14:09:37.544Z,1555
2016-04-20T14:10:37.547Z,1560
2016-04-20T14:11:37.549Z,1565
2016-04-20T14:12:37.537Z,1575
2016-04-20T14:13:37.836Z,1565
2016-04-20T14:14:37.527Z,1560
2016-04-20T14:15:37.529Z,1540
2016-04-20T14:16:37.375Z,1545
2016-04-20T14:17:37.550Z,1540
2016-04-20T14:18:37.537Z,1510
2016-04-20T14:19:37.556Z,1475
2016-04-20T14:20:37.559Z,1475
2016-04-20T14:21:37.436Z,1485
2016-04-20T14:22:37.549Z,1520
2016-04-20T14:23:37.567Z,1525
2016-04-20T14:24:37.570Z,1520
2016-04-20T14:25:37.573Z,1510
2016-04-20T14:26:37.576Z,1465
2016-04-20T14:27:37.578Z,1450
2016-04-20T14:28:37.409Z,1455
2016-04-20T14:29:37.568Z,1450
2016-04-20T14:30:37.587Z,1445
2016-04-20T14:31:37.573Z,1450
2016-04-20T14:32:37.575Z,1435
2016-04-20T14:33:37.594Z,1440
2016-04-20T14:34:37.565Z,1450
2016-04-20T14:35:37.600Z,1440
2016-04-20T14:36:37.586Z,1415
2016-04-20T14:37:37.573Z,1360
2016-04-20T14:38:37.576Z,1315
2016-04-20T14:39:37.595Z,1310
2016-04-20T14:40:37.581Z,1335
2016-04-20T14:41:37.584Z,1375
2016-04-20T14:42:37.587Z,1395
2016-04-20T14:43:37.589Z,1390
2016-04-20T14:44:37.592Z,1360
2016-04-20T14:45:37.580Z,1370
2016-04-20T14:46:37.614Z,1390
2016-04-20T14:47:37.600Z,1385
2016-04-20T14:48:37.603Z,1390
2016-04-20T14:49:37.606Z,1370
2016-04-20T14:50:37.608Z,1355
2016-04-20T14:51:37.627Z,1335
2016-04-20T14:52:37.988Z,1335
2016-04-20T14:53:37.585Z,1325
2016-04-20T14:54:37.604Z,1280
2016-04-20T14:55:37.622Z,1270
2016-04-20T14:56:37.593Z,1275
2016-04-20T14:57:37.612Z,1275
2016-04-20T14:58:37.615Z,1265
2016-04-20T14:59:37.633Z,1255
2016-04-20T15:00:37.620Z,1225
2016-04-20T15:01:37.623Z,1175
2016-04-20T15:02:37.640Z,1175
2016-04-20T15:03:37.643Z,1230
2016-04-20T15:04:37.614Z,1270
2016-04-20T15:05:37.617Z,1260
2016-04-20T15:06:37.636Z,1250
2016-04-20T15:07:37.623Z,1275
2016-04-20T15:08:37.626Z,1270
2016-04-20T15:09:37.629Z,1190
2016-04-20T15:10:37.631Z,1110
2016-04-20T15:11:37.618Z,1075
2016-04-20T15:12:37.620Z,1055
2016-04-20T15:13:37.608Z,1060
2016-04-20T15:14:37.625Z,1085
2016-04-20T15:15:37.628Z,1085
2016-04-20T15:16:37.616Z,1075
2016-04-20T15:17:37.618Z,1060
2016-04-20T15:18:37.652Z,1040
2016-04-20T15:19:37.624Z,1065
2016-04-20T15:20:37.627Z,1080
2016-04-20T15:21:37.566Z,1070
2016-04-20T15:22:37.616Z,1030
2016-04-20T15:23:37.619Z,990
2016-04-20T15:24:37.621Z,960
2016-04-20T15:25:37.609Z,935
2016-04-20T15:26:37.627Z,955
2016-04-20T15:27:37.629Z,975
2016-04-20T15:28:37.633Z,980
2016-04-20T15:29:37.620Z,960
2016-04-20T15:30:37.607Z,970
2016-04-20T15:31:37.625Z,1005
2016-04-20T15:32:37.612Z,1020
2016-04-20T15:33:37.615Z,980
2016-04-20T15:34:37.633Z,955
2016-04-20T15:35:37.620Z,955
2016-04-20T15:36:37.674Z,950
2016-04-20T15:37:37.599Z,965
2016-04-20T15:38:37.633Z,965
2016-04-20T15:39:37.604Z,940
2016-04-20T15:40:37.608Z,910
2016-04-20T15:41:37.594Z,885
2016-04-20T15:42:37.613Z,865
2016-04-20T15:43:37.584Z,870
2016-04-20T15:44:37.587Z,875
2016-04-20T15:45:37.589Z,835
2016-04-20T15:46:37.592Z,810
2016-04-20T15:47:37.689Z,795
2016-04-20T15:48:37.567Z,815
2016-04-20T15:49:37.616Z,825
2016-04-20T15:50:37.588Z,820
2016-04-20T15:51:37.668Z,785
2016-04-20T15:52:37.593Z,760
2016-04-20T15:53:37.564Z,755
2016-04-20T15:54:37.566Z,755
2016-04-20T15:55:37.569Z,770
2016-04-20T15:56:37.571Z,760
2016-04-20T15:57:37.606Z,720
2016-04-20T15:58:37.599Z,710
2016-04-20T15:59:37.643Z,745
2016-04-20T16:00:37.516Z,775
2016-04-20T16:01:37.701Z,775
2016-04-20T16:02:37.776Z,745
2016-04-20T16:03:37.864Z,730
2016-04-20T16:04:37.576Z,715
2016-04-20T16:06:53.223Z,675
2016-04-20T16:07:05.816Z,675
2016-04-20T16:08:05.769Z,660
2016-04-20T16:09:05.886Z,635
2016-04-20T16:10:05.770Z,600
2016-04-20T16:11:05.777Z,615
2016-04-20T16:12:05.786Z,670
2016-04-20T16:13:05.792Z,680
2016-04-20T16:14:05.766Z,645
2016-04-20T16:15:05.787Z,605
2016-04-20T16:16:05.776Z,580
2016-04-20T16:17:05.779Z,595
2016-04-20T16:18:05.628Z,605
2016-04-20T16:19:05.772Z,580
2016-04-20T16:20:05.760Z,560
2016-04-20T16:21:05.764Z,560
2016-04-20T16:22:05.767Z,565
2016-04-20T16:23:05.771Z,550
2016-04-20T16:24:05.757Z,530
2016-04-20T16:25:05.745Z,525
2016-04-20T16:26:05.763Z,515
2016-04-20T16:27:05.751Z,500
2016-04-20T16:28:05.754Z,500
2016-04-20T16:29:05.788Z,505
2016-04-20T16:30:05.760Z,495
2016-04-20T16:31:05.747Z,480
2016-04-20T16:32:05.780Z,480
2016-04-20T16:33:05.736Z,485
2016-04-20T16:34:05.723Z,495
2016-04-20T16:35:05.726Z,495
2016-04-20T16:36:05.729Z,490
2016-04-20T16:37:05.715Z,485
2016-04-20T16:38:05.734Z,480
2016-04-20T16:39:05.737Z,470
2016-04-20T16:40:05.708Z,475
2016-04-20T16:41:05.710Z,460
2016-04-20T16:42:05.698Z,440
2016-04-20T16:43:05.732Z,380
2016-04-20T16:44:05.703Z,355
2016-04-20T16:45:05.737Z,335
2016-04-20T16:46:05.709Z,310
2016-04-20T16:47:05.695Z,310
2016-04-20T16:48:05.698Z,340
2016-04-20T16:49:05.686Z,265
2016-04-20T16:50:05.689Z,245
2016-04-20T16:51:05.520Z,180
2016-04-20T16:52:05.694Z,200
2016-04-20T16:53:05.681Z,270
2016-04-20T16:54:05.683Z,250
2016-04-20T16:55:05.670Z,285
2016-04-20T16:56:05.673Z,285
2016-04-20T16:57:05.660Z,290
2016-04-20T16:58:05.663Z,285
2016-04-20T16:59:05.666Z,270
2016-04-20T17:00:05.669Z,260
2016-04-20T17:01:05.655Z,250
2016-04-20T17:02:05.674Z,245
2016-04-20T17:03:05.629Z,245
2016-04-20T17:04:05.491Z,240
2016-04-20T17:05:05.650Z,240
2016-04-20T17:06:05.482Z,210
2016-04-20T17:07:05.452Z,200
2016-04-20T17:08:05.487Z,210
2016-04-20T17:09:05.646Z,215
2016-04-20T17:10:05.601Z,215
2016-04-20T17:11:05.620Z,205
2016-04-20T17:12:05.607Z,195
2016-04-20T17:13:05.610Z,195
2016-04-20T17:14:05.612Z,190
2016-04-20T17:15:05.584Z,165
2016-04-20T17:16:05.587Z,165
2016-04-20T17:17:05.574Z,175
2016-04-20T17:18:05.639Z,175
2016-04-20T17:19:05.844Z,170
2016-04-20T17:20:05.565Z,160
2016-04-20T17:21:05.568Z,150
2016-04-20T17:22:05.587Z,145
2016-04-20T17:23:05.559Z,150
2016-04-20T17:24:05.576Z,145
2016-04-20T17:25:05.548Z,140
2016-04-20T17:26:05.379Z,130
2016-04-20T17:27:05.553Z,125
2016-04-20T17:28:05.524Z,125
2016-04-20T17:29:05.543Z,125
2016-04-20T17:30:05.531Z,125
2016-04-20T17:31:04.767Z,120
2016-04-20T17:32:05.504Z,115
2016-04-20T17:33:05.508Z,105
2016-04-20T17:34:05.541Z,100
2016-04-20T17:35:05.528Z,95
2016-04-20T17:36:05.578Z,90
2016-04-20T17:37:05.549Z,85
2016-04-20T17:38:05.396Z,75
2016-04-20T17:39:05.523Z,70
2016-04-20T17:40:05.463Z,70
2016-04-20T17:41:05.466Z,65
2016-04-20T17:42:05.469Z,55
2016-04-20T17:43:05.441Z,55
2016-04-20T17:44:05.443Z,55
2016-04-20T17:45:05.430Z,50
2016-04-20T17:46:05.449Z,50
2016-04-20T17:47:05.420Z,50
2016-04-20T17:48:05.407Z,50
2016-04-20T17:49:05.425Z,50
2016-04-20T17:50:05.413Z,50
2016-04-20T17:51:05.399Z,50
2016-04-20T17:52:05.277Z,45
2016-04-20T17:53:05.467Z,45
2016-04-20T17:54:10.085Z,45
2016-04-20T17:55:05.369Z,45
2016-04-20T17:56:05.356Z,40
2016-04-20T17:57:05.421Z,40
2016-04-20T17:58:05.346Z,40
2016-04-20T17:59:05.333Z,40
2016-04-20T18:00:05.336Z,35
2016-04-20T18:01:05.541Z,35
2016-04-20T18:02:05.153Z,35
2016-04-20T18:03:05.297Z,35
2016-04-20T18:04:05.299Z,30
2016-04-20T18:05:05.318Z,30
2016-04-20T18:06:05.273Z,30
2016-04-20T18:07:05.150Z,30
2016-04-20T18:08:05.261Z,30
2016-04-20T18:09:05.281Z,25
2016-04-20T18:10:05.236Z,25
2016-04-20T18:11:05.238Z,25
2016-04-20T18:12:05.210Z,25
2016-04-20T18:13:05.650Z,20
2016-04-20T18:14:05.183Z,20
2016-04-20T18:15:05.202Z,20
2016-04-20T18:16:05.189Z,20
2016-04-20T18:17:05.165Z,20
2016-04-20T18:18:05.152Z,15
2016-04-20T18:19:05.139Z,15
2016-04-20T18:20:05.156Z,15
2016-04-20T18:21:05.129Z,15
2016-04-20T18:22:05.011Z,15
2016-04-20T18:23:05.108Z,15
2016-04-20T18:24:05.079Z,10
2016-04-20T18:25:05.081Z,10
2016-04-20T18:26:05.083Z,10
2016-04-20T18:27:05.072Z,10
2016-04-20T18:28:05.058Z,10
2016-04-20T18:29:05.061Z,10
2016-04-20T18:30:05.064Z,5
2016-04-20T18:31:05.019Z,5
2016-04-20T18:32:04.897Z,5
2016-04-20T18:33:04.994Z,5
2016-04-20T18:34:04.980Z,5
2016-04-20T18:35:04.999Z,5
2016-04-20T18:36:05.018Z,5
2016-04-20T18:37:04.677Z,5
2016-04-20T18:38:04.944Z,5
2016-04-20T18:39:04.947Z,0
2016-04-20T18:40:04.919Z,0
2016-04-20T18:41:04.766Z,0
2016-04-20T18:42:04.909Z,0
2016-04-20T18:43:04.896Z,0
2016-04-20T18:44:04.882Z,0
2016-04-20T18:45:04.854Z,0
2016-04-20T18:46:04.856Z,0
2016-04-20T18:47:04.876Z,0
2016-04-20T18:48:04.846Z,0
2016-04-20T18:49:04.849Z,0
2016-04-20T18:50:04.805Z,0
2016-04-20T18:51:04.792Z,0
2016-04-20T18:52:04.810Z,0
2016-04-20T18:53:04.782Z,0
2016-04-20T18:54:04.769Z,0
2016-04-20T18:55:04.756Z,0
2016-04-20T18:56:04.743Z,0
2016-04-20T18:57:04.730Z,0
2016-04-20T18:58:04.733Z,0
2016-04-20T18:59:04.548Z,0
2016-04-20T19:00:04.925Z,0
2016-04-20T19:01:04.679Z,0
2016-04-20T19:02:04.666Z,0
2016-04-20T19:03:04.652Z,0
2016-04-20T19:04:04.639Z,0
2016-04-20T19:05:04.627Z,0
2016-04-20T19:06:04.614Z,0
2016-04-20T19:07:04.617Z,0
2016-04-20T19:08:04.587Z,0
2016-04-20T19:09:04.574Z,0
2016-04-20T19:10:04.593Z,0
2016-04-20T19:11:04.549Z,0
2016-04-20T19:12:04.535Z,0
2016-04-20T19:13:04.524Z,0
2016-04-20T19:14:04.526Z,0
2016-04-20T19:15:04.498Z,0
2016-04-20T19:16:04.501Z,0
2016-04-20T19:17:04.503Z,0
2016-04-20T19:18:04.505Z,0
2016-04-20T19:19:04.461Z,0
2016-04-20T19:20:04.464Z,0
2016-04-20T19:21:04.420Z,0
2016-04-20T19:22:04.423Z,0
2016-04-20T19:23:04.394Z,0
2016-04-20T19:24:04.381Z,0
2016-04-20T19:25:04.383Z,0
2016-04-20T19:26:04.417Z,0
2016-04-20T19:27:04.342Z,0
2016-04-20T19:28:04.345Z,0
2016-04-20T19:29:04.316Z,0
2016-04-20T19:30:04.319Z,0
2016-04-20T19:31:04.150Z,0
2016-04-20T19:32:04.308Z,0
2016-04-20T19:33:04.265Z,0
2016-04-20T19:34:04.095Z,0
2016-04-20T19:35:04.238Z,0
2016-04-20T19:36:04.241Z,0
2016-04-20T19:37:04.072Z,0
2016-04-20T19:38:04.059Z,0
2016-04-20T19:39:04.188Z,0
2016-04-20T19:40:04.190Z,0
2016-04-20T19:41:04.161Z,0
2016-04-20T19:42:04.164Z,0
2016-04-20T19:43:04.151Z,0
2016-04-20T19:44:04.138Z,0
2016-04-20T19:45:04.109Z,0
2016-04-20T19:46:04.096Z,0
2016-04-20T19:47:04.099Z,0
2016-04-20T19:48:04.071Z,0
2016-04-20T19:49:04.073Z,0
2016-04-20T19:50:04.045Z,0
2016-04-20T19:51:04.048Z,0
2016-04-20T19:52:04.050Z,0
2016-04-20T19:53:03.865Z,0
2016-04-20T19:54:04.008Z,0
2016-04-20T19:55:03.980Z,0
2016-04-20T19:56:03.967Z,0
2016-04-20T19:57:03.954Z,0
2016-04-20T19:58:03.956Z,0
2016-04-20T19:59:03.928Z,0
2016-04-20T20:00:03.915Z,0
2016-04-20T20:01:03.887Z,0
2016-04-20T20:02:03.889Z,0
2016-04-20T20:03:03.861Z,0
2016-04-20T20:04:03.863Z,0
2016-04-20T20:05:03.851Z,0
2016-04-20T20:06:03.838Z,0
2016-04-20T20:07:03.825Z,0
2016-04-20T20:08:03.796Z,0
2016-04-20T20:09:03.986Z,0
2016-04-20T20:10:04.176Z,0
2016-04-20T20:11:03.757Z,0
2016-04-20T20:12:03.745Z,0
2016-04-20T20:13:03.731Z,0
2016-04-20T20:14:03.718Z,0
2016-04-20T20:15:03.721Z,0
2016-04-20T20:16:03.693Z,0
2016-04-20T20:17:03.680Z,0
2016-04-20T20:18:03.682Z,0
2016-04-20T20:19:03.654Z,0
2016-04-20T20:20:03.657Z,0
2016-04-20T20:21:03.628Z,0
2016-04-20T20:22:03.484Z,0
2016-04-20T20:23:03.448Z,0
2016-04-20T20:24:03.623Z,0
2016-04-20T20:25:03.578Z,0
2016-04-20T20:26:03.659Z,0
2016-04-20T20:27:03.536Z,0
2016-04-20T20:28:03.525Z,0
2016-04-20T20:29:03.527Z,0
2016-04-20T20:30:03.497Z,0
2016-04-20T20:31:03.486Z,0
2016-04-20T20:32:03.472Z,0
2016-04-20T20:33:03.460Z,0
2016-04-20T20:34:03.430Z,0
2016-04-20T20:35:03.480Z,0
2016-04-20T20:36:03.405Z,0
2016-04-20T20:37:03.454Z,0
2016-04-20T20:38:03.380Z,0
2016-04-20T20:39:03.366Z,0
2016-04-20T20:40:03.353Z,0
2016-04-20T20:41:03.324Z,0
2016-04-20T20:42:03.327Z,0
2016-04-20T20:43:03.314Z,0
2016-04-20T20:44:03.301Z,0
2016-04-20T20:45:03.320Z,0
2016-04-20T20:46:03.306Z,0
2016-04-20T20:47:03.248Z,0
2016-04-20T20:48:03.234Z,0
2016-04-20T20:49:03.283Z,0
2016-04-20T20:50:03.209Z,0
2016-04-20T20:51:03.242Z,0
2016-04-20T20:52:03.197Z,0
2016-04-20T20:53:03.184Z,0
2016-04-20T20:54:03.157Z,0
2016-04-20T20:55:03.159Z,0
2016-04-20T20:56:03.131Z,0
2016-04-20T20:57:03.117Z,0
2016-04-20T20:58:03.089Z,0
2016-04-20T20:59:03.091Z,0
2016-04-20T21:00:07.376Z,0
2016-04-20T21:01:03.050Z,0
2016-04-20T21:02:03.085Z,0
2016-04-20T21:03:02.869Z,0
2016-04-20T21:04:03.013Z,0
2016-04-20T21:05:03.000Z,0
2016-04-20T21:06:02.971Z,0
2016-04-20T21:07:02.973Z,0
2016-04-20T21:08:02.945Z,0
2016-04-20T21:09:02.931Z,0
2016-04-20T21:10:02.934Z,0
2016-04-20T21:11:02.157Z,0
2016-04-20T21:12:02.939Z,0
2016-04-20T21:13:02.942Z,0
2016-04-20T21:14:02.883Z,0
2016-04-20T21:15:02.855Z,0
2016-04-20T21:16:02.842Z,0
2016-04-20T21:17:02.844Z,0
2016-04-20T21:18:02.800Z,0
2016-04-20T21:19:02.772Z,0
2016-04-20T21:20:02.790Z,0
2016-04-20T21:21:02.746Z,0
2016-04-20T21:22:02.748Z,0
2016-04-20T21:23:02.719Z,0
2016-04-20T21:24:02.754Z,0
2016-04-20T21:25:02.710Z,0
2016-04-20T21:26:02.681Z,0
2016-04-20T21:27:02.668Z,0
2016-04-20T21:28:02.655Z,0
2016-04-20T21:29:02.643Z,0
2016-04-20T21:30:02.613Z,0
2016-04-20T21:31:02.616Z,0
2016-04-20T21:32:02.588Z,0
2016-04-20T21:33:02.575Z,0
2016-04-20T21:34:02.562Z,0
2016-04-20T21:35:02.549Z,0
2016-04-20T21:36:02.379Z,0
2016-04-20T21:37:02.570Z,0
2016-04-20T21:38:02.510Z,0
2016-04-20T21:39:02.498Z,0
2016-04-20T21:40:02.454Z,0
2016-04-20T21:41:02.331Z,0
2016-04-20T21:42:02.442Z,0
2016-04-20T21:43:02.445Z,0
2016-04-20T21:44:02.401Z,0
2016-04-20T21:45:02.420Z,0
2016-04-20T21:46:02.375Z,0
2016-04-20T21:47:02.363Z,0
2016-04-20T21:48:02.365Z,0
2016-04-20T21:49:02.321Z,0
2016-04-20T21:50:01.574Z,0
2016-04-20T21:51:02.311Z,0
2016-04-20T21:52:02.298Z,0
2016-04-20T21:53:02.269Z,0
2016-04-20T21:54:02.257Z,0
2016-04-20T21:55:02.244Z,0
2016-04-20T21:56:02.230Z,0
2016-04-20T21:57:02.202Z,0
2016-04-20T21:58:02.204Z,0
2016-04-20T21:59:02.191Z,0
2016-04-20T22:00:02.163Z,0
2016-04-20T22:01:02.150Z,0
2016-04-20T22:02:02.138Z,0
2016-04-20T22:03:02.123Z,0
2016-04-20T22:04:02.112Z,0
2016-04-20T22:05:02.099Z,0
2016-04-20T22:06:02.070Z,0
2016-04-20T22:07:02.042Z,0
2016-04-20T22:08:02.044Z,0
2016-04-20T22:09:02.234Z,0
2016-04-20T22:10:02.018Z,0
2016-04-20T22:11:01.989Z,0
2016-04-20T22:12:01.976Z,0
2016-04-20T22:13:01.978Z,0
2016-04-20T22:14:01.951Z,0
2016-04-20T22:15:01.953Z,0
2016-04-20T22:16:01.909Z,0
2016-04-20T22:17:01.911Z,0
2016-04-20T22:18:02.087Z,0
2016-04-20T22:19:01.870Z,0
2016-04-20T22:20:01.873Z,0
2016-04-20T22:21:01.844Z,0
2016-04-20T22:22:01.816Z,0